0,00 -
Pkt Einheit
Index Typ
0,00% %
0,00 abs
ISIN: US78378X1072 WKN: A0AET0 Börse: Citi Indikation Datum: -

S&P 500 Index

Name Kurs +/- abs. +/- % Zeit 1 Woche % 1 Monat % 3 Monate % 6 Monate % 1 Jahr % 10 Jahre %
3M Co. 161,010 1,250 0,78 14.02.20 0,58 -10,44 -6,32 2,66 -22,91 103,35
Abbott Laboratories 89,660 0,980 1,11 14.02.20 2,04 2,61 4,61 6,81 19,15 256,08
AbbVie Inc. 94,050 -1,300 -1,36 14.02.20 1,91 5,37 6,12 49,33 16,33
Abiomed Inc. 167,220 2,420 1,47 14.02.20 -10,53 -6,01 -25,13 -12,90 -53,81 1.631,06
Accenture PLC 212,370 -0,030 -0,01 14.02.20 0,37 2,47 7,91 12,03 33,37 424,50
Activision Blizzard Inc. 63,520 0,930 1,49 14.02.20 3,23 6,52 18,86 39,57 42,42 471,74
Adobe Inc. 379,670 4,830 1,29 14.02.20 3,71 10,71 27,63 34,30 46,34 1.107,22
Advance Auto Parts Inc. 133,590 -1,080 -0,80 14.02.20 0,50 -11,06 -17,87 -2,84 -21,41 212,05
Advanced Micro Devices Inc. 55,310 0,780 1,43 14.02.20 11,22 13,94 43,44 86,42 133,57 602,80
AES Corp., The 20,930 0,100 0,48 14.02.20 2,10 2,30 13,44 41,71 23,70 77,82
AFLAC Inc. 52,810 0,350 0,67 14.02.20 -0,23 0,98 -2,92 1,42 7,16 124,06
Agilent Technologies Inc. 85,820 0,350 0,41 14.02.20 3,19 -3,16 9,66 23,32 9,60 297,64
Air Products & Chemicals Inc. 256,010 1,130 0,44 14.02.20 2,44 8,73 6,26 13,11 47,06 273,57
Akamai Technologies Inc. 99,670 0,070 0,07 14.02.20 3,69 4,78 13,64 17,23 42,20 293,49
Alaska Air Group Inc. 66,110 -0,390 -0,59 14.02.20 3,36 -0,72 -6,07 12,01 -0,32
Albemarle Corp. 89,640 1,710 1,94 14.02.20 8,60 11,88 35,53 45,38 10,16 144,92
Alexandria Real Est. Equ. Inc. 174,930 1,350 0,78 14.02.20 4,40 7,79 10,19 20,51 29,71
Alexion Pharmaceuticals Inc. 102,560 -0,860 -0,83 14.02.20 1,99 -8,84 -5,34 -5,88 -20,75 339,51
Align Technology Inc. 274,950 1,980 0,73 14.02.20 6,29 0,31 4,16 57,68 7,84 1.505,08
Allegion PLC 138,900 2,070 1,51 14.02.20 3,63 10,84 16,61 46,64 51,70
Allergan PLC 198,320 -0,940 -0,47 14.02.20 0,64 2,31 8,01 26,85 42,60 233,59
Alliance Data Systems Corp. 102,830 -0,660 -0,64 14.02.20 -2,92 -9,14 -0,60 -32,57 -40,63 90,92
Alliant Energy Corp. 59,740 0,360 0,61 14.02.20 2,42 6,19 12,95 15,84 32,81
Allstate Corp., The 125,570 0,680 0,54 14.02.20 0,92 9,90 13,02 23,30 33,05 325,23
Alphabet Inc. (Class A) 1.518,730 5,340 0,35 14.02.20 2,68 5,52 13,89 29,88 35,65 469,77
Alphabet Inc. (Class C) 1.520,740 6,080 0,40 14.02.20 2,81 5,67 13,93 30,28 36,55
Altria Group Inc. 45,170 -0,480 -1,05 14.02.20 -2,27 -11,86 -5,84 -0,70 -7,32 129,99
Amazon.com Inc. 2.134,870 -15,000 -0,70 14.02.20 2,67 14,65 22,73 20,20 32,77 1.684,11
AMCOR PLC 10,210 0,050 0,49 14.02.20 -5,64 -4,31 1,90 5,26
Ameren Corp. 86,790 1,040 1,21 14.02.20 3,82 10,98 13,27 14,48 24,56 253,38
American Airlines Group Inc. 29,200 -0,890 -2,96 14.02.20 2,89 5,87 1,14 14,92 -16,69 67,62
American Electric Power Co.Inc 103,760 0,910 0,88 14.02.20 2,39 7,41 15,86 14,83 30,89 214,90
American Express Co. 135,870 1,410 1,05 14.02.20 3,07 4,66 12,51 11,02 26,53 253,64
American International Grp Inc 48,480 -2,450 -4,81 14.02.20 -9,32 -6,37 -10,11 -9,79 14,56 80,76
American Tower Corp. 256,250 -0,650 -0,25 14.02.20 7,33 8,87 20,10 14,30 44,11 501,24
American Water Works Co. Inc. 139,320 2,370 1,73 14.02.20 3,62 9,80 17,83 11,90 42,09 528,70
Ameriprise Financial Inc. 178,820 0,420 0,24 14.02.20 2,00 6,26 11,64 45,68 36,84 367,38
AmerisourceBergen Corp. 94,360 -0,160 -0,17 14.02.20 2,63 3,27 8,09 9,76 8,89 245,01
AMETEK Inc. 101,340 -0,100 -0,10 14.02.20 3,09 0,68 3,23 20,17 28,26 505,56
Amgen Inc. 223,480 0,440 0,20 14.02.20 -2,55 -7,54 1,19 12,17 18,66 295,68
Amphenol Corp. 104,070 -0,300 -0,29 14.02.20 0,69 -4,27 1,78 23,32 12,28 421,92
Analog Devices Inc. 117,650 -1,230 -1,03 14.02.20 4,79 0,12 3,76 8,48 11,26 320,33
Ansys Inc. 291,980 0,300 0,10 14.02.20 2,51 10,48 24,13 43,04 67,33 614,94
Anthem Inc. 297,820 -1,050 -0,35 14.02.20 7,72 -1,24 8,65 -4,42 401,97
AON PLC 235,730 1,150 0,49 14.02.20 2,43 12,77 18,63 24,61 37,08 492,14
Apache Corp. 27,360 -0,560 -2,01 14.02.20 -2,67 -18,43 14,43 37,28 -17,84 -72,52
Apartment Inv. & Managem. Co. 54,800 0,670 1,24 14.02.20 2,68 5,10 1,07 9,42 10,46 245,31
Apple Inc. 324,950 0,080 0,02 14.02.20 1,54 4,32 22,27 61,07 90,68 1.034,83
Applied Materials Inc. 66,850 -0,520 -0,77 14.02.20 8,33 7,94 7,75 41,75 70,97 436,09
Aptiv PLC 88,320 -2,200 -2,43 14.02.20 1,37 0,49 -4,32 11,53 9,10
Archer Daniels Midland Co. 44,770 -0,500 -1,10 14.02.20 -2,06 0,86 4,43 21,79 6,65 50,39
Arconic Inc. 33,360 0,410 1,24 14.02.20 6,58 14,29 8,10 35,78 90,09
Arista Networks Inc. 223,470 -14,150 -5,95 14.02.20 -3,58 4,72 16,02 3,13 -15,34
Assurant Inc. 142,520 2,180 1,55 14.02.20 4,52 9,02 7,90 17,77 45,12 377,29
AT & T Inc. 38,250 -0,060 -0,16 14.02.20 -0,52 1,00 -3,16 11,39 25,53 52,57
Atmos Energy Corp. 120,450 0,950 0,79 14.02.20 2,43 5,89 10,01 10,13 24,11
Autodesk Inc. 208,950 1,440 0,69 14.02.20 0,94 9,54 29,17 46,25 30,31 762,72
Automatic Data Processing Inc. 181,250 1,140 0,63 14.02.20 1,20 4,85 5,88 9,81 21,10 429,51
AutoZone Inc. 1.053,210 -13,340 -1,25 14.02.20 -0,54 -7,15 -10,13 -2,80 14,51 554,78
Avalonbay Communities Inc. 227,530 1,940 0,86 14.02.20 3,81 7,38 6,06 11,31 16,05 201,40
Avery Dennison Corp. 138,130 -0,030 -0,02 14.02.20 1,39 4,68 4,58 23,74 31,68 330,45
Baker Hughes Co. 21,980 -0,100 -0,45 14.02.20 -2,09 -5,75 -3,13 6,13 -14,91
Ball Corp. 77,220 0,050 0,06 14.02.20 0,39 13,21 17,71 -1,00 42,66 501,05
Bank of America Corp. 34,850 -0,060 -0,17 14.02.20 0,69 0,52 5,83 32,76 19,72 141,18
Baxter International Inc. 93,140 0,570 0,62 14.02.20 2,07 4,00 14,37 8,58 26,84 208,44
Becton, Dickinson & Co. 260,220 5,870 2,31 14.02.20 5,39 -6,16 4,80 5,63 4,78 243,12
Berkley, W.R. Corp. 79,400 0,080 0,10 14.02.20 2,04 15,16 17,02 11,82 46,31
Berkshire Hathaway Inc. 226,800 0,330 0,15 14.02.20 -0,26 -0,68 3,21 14,37 10,48 194,93
Best Buy Co. Inc. 90,210 -0,190 -0,21 14.02.20 3,67 1,45 17,02 41,11 49,90 152,27
Biogen Inc. 333,000 -1,250 -0,37 14.02.20 -1,68 13,62 17,97 46,27 0,04 503,15
Bk of New York MellonCorp.,The 45,900 -0,130 -0,28 14.02.20 -2,86 -9,45 -5,50 10,15 -13,38 69,69
Blackrock Inc. 565,940 -2,610 -0,46 14.02.20 1,84 6,73 15,27 38,27 31,02 173,19
Block H. & R. Inc. 22,380 -0,100 -0,44 14.02.20 0,31 -8,80 -10,19 -17,87 -7,14 7,34
Boeing Co. 340,490 -2,330 -0,68 14.02.20 1,11 3,24 -8,39 3,81 -18,54 470,81
Booking Holdings Inc. 1.990,960 31,020 1,58 14.02.20 4,26 -3,59 7,72 4,54 2,97 858,21
BorgWarner Inc. 34,150 -0,930 -2,65 14.02.20 1,73 -17,29 -23,41 9,88 -18,54 86,41
Boston Properties Inc. 147,230 1,650 1,13 14.02.20 3,17 7,21 7,03 15,85 10,19 132,22
Boston Scientific Corp. 42,310 0,130 0,31 14.02.20 0,28 -0,61 1,05 5,75 472,53
Bristol-Myers Squibb Co. 66,380 0,300 0,45 14.02.20 0,20 -0,30 13,30 45,09 28,47 177,62
Broadcom Inc. 317,770 -6,200 -1,91 14.02.20 0,81 4,83 1,56 18,36 12,71 1.730,47
Broadridge Financial Solutions 122,280 -0,090 -0,07 14.02.20 3,76 -4,68 2,07 -3,47 21,85
Brown-Forman Corp. Class B 71,400 0,190 0,27 14.02.20 3,78 2,44 10,34 25,22 45,92 322,88
C.H. Robinson Worldwide Inc. 72,010 -0,120 -0,17 14.02.20 -3,19 -13,76 -3,63 -13,14 -21,26 38,16
Cabot Oil & Gas Corp. 14,800 -0,270 -1,79 14.02.20 1,09 -14,65 -18,55 -9,20 -41,34 49,87
Cadence Design Systems Inc. 78,760 -0,490 -0,62 14.02.20 7,08 9,48 16,73 15,59 49,79 1.289,07
Campbell Soup Co. 48,640 0,280 0,58 14.02.20 -0,49 1,80 2,88 15,37 39,81 47,22
Capital One Financial Corp. 102,640 -0,140 -0,14 14.02.20 0,83 0,29 5,40 22,67 25,83 192,09
Capri Holdings Ltd. 28,620 -1,080 -3,64 14.02.20 -6,16 -20,17 -22,10 6,04 -35,67
Cardinal Health Inc. 59,620 0,220 0,37 14.02.20 2,37 10,80 6,01 41,95 7,46 78,61
Carmax Inc. 98,810 -0,080 -0,08 14.02.20 2,61 6,38 0,83 17,28 59,22 370,52
Carnival Corp. 42,600 -0,600 -1,39 14.02.20 0,95 -15,54 -5,02 -3,84 -25,59 29,80
Caterpillar Inc. 137,990 -1,730 -1,24 14.02.20 3,46 -5,21 -5,04 19,73 1,31 145,53
Cboe Global Markets Inc. 125,630 1,360 1,09 14.02.20 2,52 7,50 5,14 3,09 34,31
CBRE Group Inc. 63,960 -0,160 -0,25 14.02.20 -0,11 5,91 13,32 26,75 27,79 406,01
CDW Corp. 138,290 1,010 0,74 14.02.20 4,24 -4,36 1,27 27,20 45,81
Celanese Corp. (Del.) 110,020 -0,480 -0,43 14.02.20 1,32 -6,92 -12,65 2,40 9,73
Centene Corp. 64,940 -0,950 -1,44 14.02.20 2,82 0,65 12,82 36,54 -0,05
CenterPoint Energy Inc. 27,180 0,000 0,00 14.02.20 1,72 0,67 6,67 -1,41 -12,01 99,12
CenturyLink Inc. 13,900 0,020 0,14 14.02.20 -4,34 6,43 -7,15 31,63 1,16 -59,79
Cerner Corp. 77,070 0,580 0,76 14.02.20 -2,36 3,19 12,68 11,29 33,09 291,62
Zum Index